createdAt,value
2018-08-31T00:02:56.896Z,9.53
2018-08-31T00:05:51.114Z,9.23
2018-08-31T00:08:48.177Z,10.07
2018-08-31T00:11:31.812Z,10.87
2018-08-31T00:14:00.945Z,9.97
2018-08-31T00:16:30.405Z,10.13
2018-08-31T00:18:59.642Z,9.97
2018-08-31T00:21:29.095Z,10.00
2018-08-31T00:24:09.250Z,10.17
2018-08-31T00:26:49.399Z,11.17
2018-08-31T00:29:38.465Z,10.20
2018-08-31T00:33:16.510Z,10.43
2018-08-31T00:38:06.880Z,10.87
2018-08-31T00:43:54.767Z,10.07
2018-08-31T00:46:24.544Z,10.67
2018-08-31T00:48:54.070Z,10.37
2018-08-31T00:51:23.188Z,10.50
2018-08-31T00:53:52.540Z,10.50
2018-08-31T00:56:21.791Z,10.87
2018-08-31T00:58:51.117Z,10.33
2018-08-31T01:01:20.383Z,10.13
2018-08-31T01:03:49.799Z,9.63
2018-08-31T01:06:19.206Z,10.27
2018-08-31T01:08:48.439Z,10.83
2018-08-31T01:11:17.470Z,10.70
2018-08-31T01:13:46.604Z,10.60
2018-08-31T01:16:16.024Z,10.63
2018-08-31T01:18:44.864Z,9.73
2018-08-31T01:21:14.303Z,10.60
2018-08-31T01:23:43.696Z,9.73
2018-08-31T01:26:13.185Z,10.37
2018-08-31T01:28:42.318Z,10.47
2018-08-31T01:31:11.305Z,11.13
2018-08-31T01:33:40.712Z,9.97
2018-08-31T01:36:10.113Z,10.70
2018-08-31T01:38:39.379Z,9.73
2018-08-31T01:41:08.712Z,10.53
2018-08-31T01:43:38.176Z,11.00
2018-08-31T01:46:07.183Z,9.10
2018-08-31T01:48:37.052Z,10.40
2018-08-31T01:51:11.276Z,10.00
2018-08-31T01:53:40.733Z,10.10
2018-08-31T01:56:10.243Z,9.53
2018-08-31T01:58:39.428Z,10.30
2018-08-31T02:01:08.922Z,11.03
2018-08-31T02:03:38.328Z,11.60
2018-08-31T02:06:07.311Z,10.63
2018-08-31T02:08:40.715Z,11.03
2018-08-31T02:11:09.712Z,10.77
2018-08-31T02:13:39.136Z,10.30
2018-08-31T02:16:08.316Z,10.23
2018-08-31T02:18:37.711Z,10.70
2018-08-31T02:21:06.765Z,10.90
2018-08-31T02:23:36.233Z,10.10
2018-08-31T02:26:05.550Z,9.67
2018-08-31T02:28:34.589Z,10.73
2018-08-31T02:31:03.986Z,11.07
2018-08-31T02:33:33.201Z,11.17
2018-08-31T02:36:02.407Z,10.97
2018-08-31T02:38:31.746Z,10.13
2018-08-31T02:41:01.036Z,10.77
2018-08-31T02:43:30.215Z,10.20
2018-08-31T02:45:59.560Z,9.90
2018-08-31T02:48:28.435Z,10.93
2018-08-31T02:50:57.648Z,10.90
2018-08-31T02:53:26.706Z,10.70
2018-08-31T02:55:55.984Z,10.10
2018-08-31T02:58:25.375Z,10.30
2018-08-31T03:00:54.680Z,10.10
2018-08-31T03:03:24.060Z,9.67
2018-08-31T03:05:53.562Z,11.43
2018-08-31T03:08:22.795Z,10.37
2018-08-31T03:10:52.164Z,10.77
2018-08-31T03:13:21.475Z,10.10
2018-08-31T03:15:50.771Z,10.10
2018-08-31T03:18:20.062Z,10.43
2018-08-31T03:20:49.243Z,10.47
2018-08-31T03:23:18.352Z,10.13
2018-08-31T03:25:47.289Z,10.13
2018-08-31T03:28:16.649Z,9.90
2018-08-31T03:30:45.915Z,10.00
2018-08-31T03:33:15.268Z,10.33
2018-08-31T03:35:44.519Z,10.87
2018-08-31T03:38:13.771Z,10.47
2018-08-31T03:40:42.991Z,10.27
2018-08-31T03:43:12.296Z,9.40
2018-08-31T03:45:41.351Z,12.03
2018-08-31T03:48:10.548Z,9.57
2018-08-31T03:50:39.919Z,9.57
2018-08-31T03:53:09.194Z,9.00
2018-08-31T03:55:38.693Z,9.73
2018-08-31T03:58:08.027Z,10.20
2018-08-31T04:00:37.195Z,10.30
2018-08-31T04:03:06.543Z,10.73
2018-08-31T04:05:35.620Z,11.07
2018-08-31T04:08:04.935Z,9.47
2018-08-31T04:10:34.035Z,9.10
2018-08-31T04:13:03.319Z,10.67
2018-08-31T04:15:32.662Z,9.40
2018-08-31T04:18:01.707Z,9.67
2018-08-31T04:20:30.876Z,11.50
2018-08-31T04:23:00.519Z,10.03
2018-08-31T04:25:29.808Z,9.47
2018-08-31T04:27:59.044Z,9.80
2018-08-31T04:30:28.120Z,9.87
2018-08-31T04:32:57.570Z,9.83
2018-08-31T04:35:26.823Z,10.03
2018-08-31T04:37:56.209Z,9.23
2018-08-31T04:40:25.606Z,9.63
2018-08-31T04:42:55.033Z,9.30
2018-08-31T04:45:23.892Z,9.87
2018-08-31T04:47:53.023Z,9.20
2018-08-31T04:50:22.176Z,9.20
2018-08-31T04:52:51.335Z,9.63
2018-08-31T04:55:20.076Z,9.73
2018-08-31T04:57:49.264Z,10.23
2018-08-31T05:00:18.167Z,9.70
2018-08-31T05:02:47.284Z,9.63
2018-08-31T05:05:16.519Z,9.23
2018-08-31T05:07:45.602Z,9.37
2018-08-31T05:10:14.588Z,9.27
2018-08-31T05:12:43.787Z,9.63
2018-08-31T05:15:13.045Z,9.50
2018-08-31T05:17:41.933Z,9.33
2018-08-31T05:20:11.260Z,9.57
2018-08-31T05:22:40.704Z,9.47
2018-08-31T05:25:10.073Z,11.00
2018-08-31T05:27:38.062Z,21.23
2018-08-31T05:30:07.797Z,15.03
2018-08-31T05:32:37.117Z,13.33
2018-08-31T05:35:06.521Z,13.60
2018-08-31T05:37:35.743Z,12.27
2018-08-31T05:40:04.973Z,11.20
2018-08-31T05:42:34.190Z,10.67
2018-08-31T05:45:03.568Z,11.33
2018-08-31T05:47:32.795Z,10.40
2018-08-31T05:50:02.054Z,12.70
2018-08-31T05:52:31.440Z,12.57
2018-08-31T05:55:00.583Z,15.47
2018-08-31T05:57:29.756Z,21.10
2018-08-31T05:59:58.995Z,23.03
2018-08-31T06:02:28.340Z,21.17
2018-08-31T06:04:57.370Z,19.03
2018-08-31T06:07:26.688Z,17.43
2018-08-31T06:09:55.859Z,18.83
2018-08-31T06:12:25.275Z,17.30
2018-08-31T06:14:54.374Z,12.50
2018-08-31T06:17:23.620Z,11.57
2018-08-31T06:19:52.903Z,10.53
2018-08-31T06:22:22.252Z,11.07
2018-08-31T06:24:51.601Z,9.87
2018-08-31T06:27:20.861Z,10.23
2018-08-31T06:29:49.884Z,10.53
2018-08-31T06:32:19.020Z,9.93
2018-08-31T06:34:48.100Z,10.53
2018-08-31T06:37:17.550Z,10.07
2018-08-31T06:39:46.879Z,8.80
2018-08-31T06:42:16.323Z,9.27
2018-08-31T06:44:45.643Z,9.67
2018-08-31T06:47:14.883Z,10.37
2018-08-31T06:49:44.228Z,11.40
2018-08-31T06:52:13.230Z,11.53
2018-08-31T06:54:42.208Z,10.70
2018-08-31T06:57:11.399Z,12.27
2018-08-31T06:59:40.508Z,10.17
2018-08-31T07:02:09.648Z,10.90
2018-08-31T07:04:38.927Z,9.90
2018-08-31T07:07:08.222Z,10.37
2018-08-31T07:09:37.141Z,10.00
2018-08-31T07:12:06.618Z,9.57
2018-08-31T07:14:35.846Z,10.50
2018-08-31T07:17:05.307Z,10.50
2018-08-31T07:19:34.555Z,10.53
2018-08-31T07:22:03.635Z,12.13
2018-08-31T07:24:32.848Z,11.63
2018-08-31T07:27:02.041Z,13.93
2018-08-31T07:29:31.184Z,12.57
2018-08-31T07:32:00.207Z,12.53
2018-08-31T07:34:29.523Z,11.87
2018-08-31T07:36:58.782Z,11.97
2018-08-31T07:39:28.070Z,12.87
2018-08-31T07:41:57.582Z,11.77
2018-08-31T07:44:26.448Z,10.20
2018-08-31T07:46:55.643Z,15.90
2018-08-31T07:49:25.116Z,11.80
2018-08-31T07:51:54.433Z,10.10
2018-08-31T07:54:23.631Z,11.17
2018-08-31T07:56:52.599Z,15.73
2018-08-31T07:59:22.000Z,18.60
2018-08-31T08:01:51.418Z,12.73
2018-08-31T08:04:20.830Z,11.83
2018-08-31T08:06:50.060Z,10.90
2018-08-31T08:09:19.369Z,10.37
2018-08-31T08:11:48.762Z,11.90
2018-08-31T08:14:17.855Z,10.53
2018-08-31T08:16:47.052Z,9.23
2018-08-31T08:19:16.237Z,9.07
2018-08-31T08:21:45.355Z,11.37
2018-08-31T08:24:14.697Z,9.17
2018-08-31T08:26:44.035Z,8.93
2018-08-31T08:29:13.246Z,8.77
2018-08-31T08:31:42.640Z,13.53
2018-08-31T08:34:11.747Z,10.57
2018-08-31T08:36:41.128Z,10.18
2018-08-31T08:39:10.536Z,12.33
2018-08-31T08:41:39.699Z,10.68
2018-08-31T08:44:09.529Z,8.18
2018-08-31T08:46:38.924Z,8.48
2018-08-31T08:49:08.292Z,8.40
2018-08-31T08:51:37.298Z,9.13
2018-08-31T08:54:06.835Z,7.70
2018-08-31T08:56:36.351Z,8.85
2018-08-31T08:59:05.750Z,8.40
2018-08-31T09:01:34.668Z,8.28
2018-08-31T09:04:03.726Z,8.78
2018-08-31T09:06:32.812Z,8.73
2018-08-31T09:09:01.793Z,8.20
2018-08-31T09:11:31.203Z,8.75
2018-08-31T09:14:00.529Z,8.98
2018-08-31T09:16:29.699Z,8.53
2018-08-31T09:18:59.163Z,8.78
2018-08-31T09:21:28.400Z,9.00
2018-08-31T09:23:57.549Z,9.13
2018-08-31T09:26:26.891Z,9.08
2018-08-31T09:28:56.314Z,9.15
2018-08-31T09:31:25.635Z,9.30
2018-08-31T09:33:54.816Z,9.78
2018-08-31T09:36:24.142Z,9.83
2018-08-31T09:38:53.180Z,9.03
2018-08-31T09:41:22.399Z,8.60
2018-08-31T09:43:52.018Z,9.75
2018-08-31T09:46:21.060Z,8.73
2018-08-31T09:48:50.348Z,8.58
2018-08-31T09:51:19.439Z,8.63
2018-08-31T09:53:48.667Z,8.48
2018-08-31T09:56:18.013Z,8.18
2018-08-31T09:58:47.224Z,8.03
2018-08-31T10:01:21.488Z,7.70
2018-08-31T10:03:50.640Z,8.88
2018-08-31T10:06:19.495Z,7.85
2018-08-31T10:08:48.836Z,8.63
2018-08-31T10:11:18.092Z,8.20
2018-08-31T10:13:47.188Z,8.68
2018-08-31T10:16:16.451Z,8.30
2018-08-31T10:18:46.308Z,8.45
2018-08-31T10:21:15.783Z,8.45
2018-08-31T10:23:45.128Z,9.23
2018-08-31T10:26:14.605Z,8.48
2018-08-31T10:28:43.989Z,9.55
2018-08-31T10:31:12.978Z,9.28
2018-08-31T10:33:42.220Z,8.45
2018-08-31T10:36:11.479Z,8.95
2018-08-31T10:38:40.762Z,8.95
2018-08-31T10:41:10.199Z,8.70
2018-08-31T10:43:39.475Z,7.90
2018-08-31T10:46:09.383Z,7.97
2018-08-31T10:48:38.543Z,8.45
2018-08-31T10:51:07.889Z,8.13
2018-08-31T10:53:37.227Z,8.25
2018-08-31T10:56:06.591Z,8.65
2018-08-31T10:58:35.843Z,9.68
2018-08-31T11:01:04.872Z,9.15
2018-08-31T11:03:34.355Z,8.30
2018-08-31T11:06:03.613Z,8.73
2018-08-31T11:08:32.976Z,19.27
2018-08-31T11:11:02.438Z,9.05
2018-08-31T11:13:31.767Z,8.78
2018-08-31T11:16:01.237Z,9.40
2018-08-31T11:18:30.434Z,8.10
2018-08-31T11:20:59.726Z,11.73
2018-08-31T11:23:28.764Z,7.40
2018-08-31T11:25:58.175Z,7.78
2018-08-31T11:28:27.181Z,8.00
2018-08-31T11:30:56.252Z,7.78
2018-08-31T11:33:25.507Z,7.50
2018-08-31T11:35:54.780Z,7.83
2018-08-31T11:38:23.868Z,7.03
2018-08-31T11:40:53.143Z,7.00
2018-08-31T11:43:22.420Z,7.70
2018-08-31T11:45:51.744Z,6.92
2018-08-31T11:48:20.906Z,7.12
2018-08-31T11:50:50.235Z,6.80
2018-08-31T11:53:19.773Z,6.90
2018-08-31T11:55:48.924Z,7.83
2018-08-31T11:58:18.250Z,7.25
2018-08-31T12:00:47.652Z,7.40
2018-08-31T12:03:16.991Z,8.08
2018-08-31T12:05:46.333Z,7.37
2018-08-31T12:08:15.622Z,8.20
2018-08-31T12:10:44.997Z,7.85
2018-08-31T12:13:14.075Z,8.30
2018-08-31T12:15:43.340Z,7.87
2018-08-31T12:18:12.268Z,7.87
2018-08-31T12:20:41.227Z,8.45
2018-08-31T12:23:10.203Z,8.25
2018-08-31T12:25:39.387Z,8.88
2018-08-31T12:28:08.697Z,7.87
2018-08-31T12:30:38.148Z,9.25
2018-08-31T12:33:07.656Z,8.90
2018-08-31T12:35:37.112Z,8.95
2018-08-31T12:38:06.455Z,8.90
2018-08-31T12:40:35.501Z,8.88
2018-08-31T12:43:04.754Z,8.70
2018-08-31T12:45:33.888Z,8.15
2018-08-31T12:48:03.260Z,8.43
2018-08-31T12:50:32.407Z,8.55
2018-08-31T12:53:01.360Z,8.55
2018-08-31T12:55:30.578Z,8.05
2018-08-31T12:57:59.677Z,9.43
2018-08-31T13:00:29.032Z,9.00
2018-08-31T13:02:58.331Z,9.08
2018-08-31T13:05:27.321Z,8.33
2018-08-31T13:07:56.309Z,8.80
2018-08-31T13:10:25.763Z,8.73
2018-08-31T13:12:54.737Z,9.28
2018-08-31T13:15:23.799Z,8.48
2018-08-31T13:17:53.050Z,8.45
2018-08-31T13:20:22.656Z,8.18
2018-08-31T13:22:52.269Z,9.05
2018-08-31T13:25:21.767Z,9.00
2018-08-31T13:27:50.680Z,8.80
2018-08-31T13:30:19.911Z,8.93
2018-08-31T13:32:49.044Z,8.88
2018-08-31T13:35:18.361Z,8.23
2018-08-31T13:37:47.864Z,8.98
2018-08-31T13:40:17.037Z,8.50
2018-08-31T13:42:46.382Z,8.25
2018-08-31T13:45:15.581Z,8.55
2018-08-31T13:47:44.994Z,8.20
2018-08-31T13:50:14.443Z,8.43
2018-08-31T13:52:43.856Z,8.75
2018-08-31T13:55:12.864Z,9.28
2018-08-31T13:57:42.185Z,8.88
2018-08-31T14:00:11.376Z,9.50
2018-08-31T14:02:40.594Z,9.68
2018-08-31T14:05:09.873Z,8.98
2018-08-31T14:07:38.836Z,9.18
2018-08-31T14:10:08.098Z,9.23
2018-08-31T14:12:37.218Z,8.53
2018-08-31T14:15:06.669Z,9.53
2018-08-31T14:17:36.076Z,8.60
2018-08-31T14:20:05.275Z,9.33
2018-08-31T14:22:34.587Z,9.43
2018-08-31T14:25:03.896Z,9.20
2018-08-31T14:27:33.102Z,10.20
2018-08-31T14:30:02.562Z,9.20
2018-08-31T14:32:31.367Z,8.87
2018-08-31T14:35:00.608Z,8.90
2018-08-31T14:37:30.076Z,9.00
2018-08-31T14:39:59.359Z,8.93
2018-08-31T14:42:28.692Z,8.20
2018-08-31T14:44:57.665Z,9.17
2018-08-31T14:47:27.031Z,8.80
2018-08-31T14:49:56.010Z,8.60
2018-08-31T14:52:24.932Z,11.87
2018-08-31T14:54:54.074Z,9.47
2018-08-31T14:57:23.437Z,9.57
2018-08-31T14:59:52.760Z,9.03
2018-08-31T15:02:22.220Z,9.13
2018-08-31T15:04:51.568Z,8.63
2018-08-31T15:07:20.869Z,9.40
2018-08-31T15:09:50.033Z,9.43
2018-08-31T15:12:19.158Z,9.50
2018-08-31T15:14:48.359Z,9.10
2018-08-31T15:17:17.754Z,9.43
2018-08-31T15:19:46.780Z,10.07
2018-08-31T15:22:16.120Z,8.77
2018-08-31T15:24:45.373Z,8.50
2018-08-31T15:27:14.740Z,7.83
2018-08-31T15:29:43.749Z,8.27
2018-08-31T15:32:13.079Z,8.53
2018-08-31T15:34:42.342Z,9.20
2018-08-31T15:37:11.665Z,8.60
2018-08-31T15:39:41.031Z,9.57
2018-08-31T15:42:10.435Z,9.07
2018-08-31T15:44:39.736Z,9.63
2018-08-31T15:47:09.023Z,9.93
2018-08-31T15:49:38.171Z,9.17
2018-08-31T15:52:07.800Z,10.47
2018-08-31T15:54:37.079Z,9.70
2018-08-31T15:57:06.492Z,10.20
2018-08-31T15:59:35.850Z,8.80
2018-08-31T16:02:04.752Z,8.97
2018-08-31T16:04:34.040Z,10.20
2018-08-31T16:07:03.428Z,10.03
2018-08-31T16:09:32.607Z,13.30
2018-08-31T16:12:01.696Z,14.87
2018-08-31T16:14:31.166Z,11.13
2018-08-31T16:17:00.147Z,10.17
2018-08-31T16:19:29.428Z,13.27
2018-08-31T16:21:58.383Z,14.13
2018-08-31T16:24:27.540Z,10.17
2018-08-31T16:26:56.569Z,9.23
2018-08-31T16:29:25.830Z,9.43
2018-08-31T16:31:55.048Z,8.60
2018-08-31T16:34:24.444Z,8.97
2018-08-31T16:36:53.792Z,9.63
2018-08-31T16:39:23.079Z,8.40
2018-08-31T16:41:52.352Z,9.30
2018-08-31T16:44:21.728Z,9.63
2018-08-31T16:46:51.051Z,9.40
2018-08-31T16:49:20.451Z,8.77
2018-08-31T16:51:49.832Z,8.80
2018-08-31T16:54:19.112Z,9.73
2018-08-31T16:56:48.295Z,9.43
2018-08-31T16:59:17.646Z,9.20
2018-08-31T17:01:46.801Z,9.33
2018-08-31T17:04:15.940Z,8.87
2018-08-31T17:06:45.026Z,9.00
2018-08-31T17:09:14.519Z,9.70
2018-08-31T17:11:44.695Z,9.13
2018-08-31T17:14:14.093Z,9.30
2018-08-31T17:16:43.445Z,8.90
2018-08-31T17:19:12.775Z,9.43
2018-08-31T17:21:42.192Z,9.67
2018-08-31T17:24:11.268Z,9.50
2018-08-31T17:26:45.184Z,10.30
2018-08-31T17:29:19.496Z,8.83
2018-08-31T17:31:53.704Z,8.80
2018-08-31T17:34:28.494Z,10.37
2018-08-31T17:37:02.763Z,9.90
2018-08-31T17:39:32.212Z,12.00
2018-08-31T17:42:01.669Z,10.77
2018-08-31T17:44:31.041Z,10.00
2018-08-31T17:47:00.454Z,9.70
2018-08-31T17:49:29.928Z,10.60
2018-08-31T17:51:59.292Z,12.80
2018-08-31T17:54:28.623Z,10.23
2018-08-31T17:56:57.688Z,9.90
2018-08-31T17:59:27.081Z,10.30
2018-08-31T18:01:56.232Z,8.80
2018-08-31T18:04:25.345Z,10.23
2018-08-31T18:06:54.766Z,9.57
2018-08-31T18:09:23.828Z,9.87
2018-08-31T18:11:53.232Z,8.87
2018-08-31T18:14:22.551Z,10.37
2018-08-31T18:16:51.966Z,10.23
2018-08-31T18:19:21.311Z,10.13
2018-08-31T18:21:50.308Z,12.60
2018-08-31T18:24:19.652Z,11.07
2018-08-31T18:26:48.824Z,10.47
2018-08-31T18:29:18.297Z,10.13
2018-08-31T18:31:47.651Z,9.47
2018-08-31T18:34:16.952Z,10.27
2018-08-31T18:36:46.287Z,10.27
2018-08-31T18:39:15.323Z,9.97
2018-08-31T18:41:45.217Z,9.20
2018-08-31T18:44:14.637Z,10.97
2018-08-31T18:46:44.307Z,11.27
2018-08-31T18:49:14.169Z,11.33
2018-08-31T18:51:43.456Z,9.90
2018-08-31T18:54:12.327Z,10.63
2018-08-31T18:56:41.711Z,9.63
2018-08-31T18:59:11.892Z,9.80
2018-08-31T19:01:41.383Z,10.03
2018-08-31T19:04:10.853Z,9.47
2018-08-31T19:06:40.361Z,10.23
2018-08-31T19:09:09.955Z,10.63
2018-08-31T19:11:39.183Z,9.70
2018-08-31T19:14:08.699Z,9.70
2018-08-31T19:16:38.152Z,9.87
2018-08-31T19:19:07.418Z,11.80
2018-08-31T19:21:36.697Z,9.93
2018-08-31T19:24:05.802Z,10.43
2018-08-31T19:26:35.293Z,9.77
2018-08-31T19:29:04.639Z,11.67
2018-08-31T19:31:34.622Z,10.33
2018-08-31T19:34:04.085Z,9.87
2018-08-31T19:36:33.523Z,11.27
2018-08-31T19:39:02.714Z,9.60
2018-08-31T19:41:32.028Z,10.20
2018-08-31T19:44:01.272Z,11.60
2018-08-31T19:46:30.512Z,9.17
2018-08-31T19:48:59.521Z,10.07
2018-08-31T19:51:29.027Z,9.30
2018-08-31T19:53:58.073Z,10.07
2018-08-31T19:56:27.031Z,9.57
2018-08-31T19:58:56.481Z,9.03
2018-08-31T20:01:25.947Z,9.87
2018-08-31T20:03:55.447Z,11.70
2018-08-31T20:06:24.635Z,10.17
2018-08-31T20:08:54.044Z,10.00
2018-08-31T20:11:23.240Z,9.63
2018-08-31T20:13:52.237Z,10.70
2018-08-31T20:16:21.586Z,9.53
2018-08-31T20:18:50.880Z,10.30
2018-08-31T20:21:20.084Z,10.57
2018-08-31T20:23:49.516Z,11.07
2018-08-31T20:26:18.593Z,11.40
2018-08-31T20:28:47.994Z,10.83
2018-08-31T20:31:17.373Z,10.03
2018-08-31T20:33:46.495Z,10.73
2018-08-31T20:36:15.838Z,10.43
2018-08-31T20:38:45.361Z,10.23
2018-08-31T20:41:14.685Z,10.27
2018-08-31T20:43:44.030Z,10.90
2018-08-31T20:46:13.223Z,9.47
2018-08-31T20:48:42.541Z,10.10
2018-08-31T20:51:11.521Z,9.33
2018-08-31T20:53:40.461Z,9.70
2018-08-31T20:56:09.694Z,10.07
2018-08-31T20:58:38.715Z,9.80
2018-08-31T21:01:07.923Z,9.70
2018-08-31T21:03:37.399Z,9.80
2018-08-31T21:06:06.744Z,11.30
2018-08-31T21:08:36.075Z,10.07
2018-08-31T21:11:05.078Z,10.87
2018-08-31T21:13:34.262Z,10.77
2018-08-31T21:16:03.319Z,9.70
2018-08-31T21:18:32.271Z,10.40
2018-08-31T21:21:01.346Z,10.00
2018-08-31T21:23:30.551Z,10.70
2018-08-31T21:26:00.107Z,11.57
2018-08-31T21:28:29.124Z,10.03
2018-08-31T21:30:58.567Z,10.30
2018-08-31T21:33:27.699Z,9.73
2018-08-31T21:35:56.956Z,9.23
2018-08-31T21:38:25.857Z,9.97
2018-08-31T21:40:55.074Z,10.67
2018-08-31T21:43:24.372Z,9.87
2018-08-31T21:45:53.394Z,10.70
2018-08-31T21:48:22.633Z,10.30
2018-08-31T21:50:52.111Z,9.90
2018-08-31T21:53:21.527Z,12.53
2018-08-31T21:55:50.871Z,10.13
2018-08-31T21:58:20.273Z,10.47
2018-08-31T22:00:49.697Z,11.27
2018-08-31T22:03:18.978Z,10.87
2018-08-31T22:05:49.194Z,13.87
2018-08-31T22:08:19.057Z,10.93
2018-08-31T22:10:48.103Z,10.40
2018-08-31T22:13:17.310Z,11.03
2018-08-31T22:15:46.315Z,10.23
2018-08-31T22:18:15.495Z,12.23
2018-08-31T22:20:44.748Z,10.70
2018-08-31T22:23:14.182Z,12.53
2018-08-31T22:25:43.523Z,11.00
2018-08-31T22:28:12.873Z,11.40
2018-08-31T22:30:41.995Z,10.27
2018-08-31T22:33:11.324Z,9.37
2018-08-31T22:35:40.540Z,9.63
2018-08-31T22:38:09.730Z,10.20
2018-08-31T22:40:39.071Z,11.87
2018-08-31T22:43:08.180Z,10.00
2018-08-31T22:45:37.459Z,11.13
2018-08-31T22:48:06.829Z,10.80
2018-08-31T22:50:35.884Z,11.43
2018-08-31T22:53:05.057Z,10.07
2018-08-31T22:55:34.456Z,8.93
2018-08-31T22:58:03.765Z,15.57
2018-08-31T23:00:33.156Z,10.00
2018-08-31T23:03:02.401Z,9.80
2018-08-31T23:05:31.333Z,10.47
2018-08-31T23:08:02.799Z,10.17
2018-08-31T23:10:32.945Z,11.00
2018-08-31T23:13:02.682Z,12.47
2018-08-31T23:15:31.742Z,9.07
2018-08-31T23:18:01.119Z,10.00
2018-08-31T23:20:30.195Z,9.90
2018-08-31T23:23:04.567Z,10.20
2018-08-31T23:25:38.800Z,12.37
2018-08-31T23:28:07.760Z,10.73
2018-08-31T23:30:36.827Z,11.37
2018-08-31T23:33:06.047Z,10.20
2018-08-31T23:35:35.383Z,10.03
2018-08-31T23:38:04.713Z,11.23
2018-08-31T23:40:33.978Z,10.73
2018-08-31T23:43:03.377Z,11.00
2018-08-31T23:45:32.410Z,10.70
2018-08-31T23:48:01.816Z,10.13
2018-08-31T23:50:31.179Z,10.43
2018-08-31T23:53:00.626Z,10.27
2018-08-31T23:55:30.023Z,10.93
2018-08-31T23:57:59.315Z,10.73
